Time;durP1;ratioP1;P1;durP2;ratioP2;P2;SDS_P1;SDS_P2;PMS_P1;PMS_P2;Temp;Humidity;BMP_temperature;BMP_pressure;BME280_temperature;BME280_humidity;BME280_pressure;Samples;Min_cycle;Max_cycle;Signal;HPM_P1;HPM_P2
2020/12/03 00:01:53;;;;;;;20.87;13.53;;;5.30;99.90;;;;;;4965918;28;20192;-79
2020/12/03 00:04:19;;;;;;;16.20;12.20;;;5.30;99.90;;;;;;4934894;28;20219;-79
2020/12/03 00:06:49;;;;;;;18.30;11.83;;;5.30;99.90;;;;;;4931626;29;20180;-79
2020/12/03 00:09:18;;;;;;;17.95;11.98;;;5.20;99.90;;;;;;4934875;28;20448;-79
2020/12/03 00:11:50;;;;;;;14.75;10.45;;;5.30;99.90;;;;;;4965931;28;20220;-79
2020/12/03 00:14:16;;;;;;;17.38;11.30;;;5.30;99.90;;;;;;4934410;28;20826;-79
2020/12/03 00:16:42;;;;;;;17.60;11.30;;;5.20;99.90;;;;;;4952799;28;20192;-79
2020/12/03 00:19:10;;;;;;;16.60;12.20;;;5.30;99.90;;;;;;4944598;28;20528;-79
2020/12/03 00:21:45;;;;;;;19.08;11.90;;;5.20;99.90;;;;;;4934914;29;20196;-80
2020/12/03 00:24:15;;;;;;;15.63;10.38;;;5.20;99.90;;;;;;4932967;28;20216;-79
2020/12/03 00:26:41;;;;;;;17.15;11.32;;;5.30;99.90;;;;;;4930753;29;20547;-79
2020/12/03 00:29:07;;;;;;;12.80;10.03;;;5.30;99.90;;;;;;4934126;28;20220;-79
2020/12/03 00:31:33;;;;;;;16.10;10.57;;;5.30;99.90;;;;;;4933480;29;20207;-79
2020/12/03 00:33:59;;;;;;;15.25;11.50;;;5.20;99.90;;;;;;4964857;28;20627;-80
2020/12/03 00:36:25;;;;;;;13.77;8.70;;;5.20;99.90;;;;;;4933001;29;20168;-80
2020/12/03 00:38:51;;;;;;;17.98;11.25;;;5.20;99.90;;;;;;4934795;29;20191;-79
2020/12/03 00:41:19;;;;;;;14.52;10.63;;;5.20;99.90;;;;;;4934447;29;20212;-79
2020/12/03 00:43:45;;;;;;;13.55;10.07;;;5.20;99.90;;;;;;4934779;29;20180;-79
2020/12/03 00:46:10;;;;;;;11.43;9.80;;;5.20;99.90;;;;;;4960759;28;20204;-79
2020/12/03 00:48:39;;;;;;;10.87;9.20;;;5.20;99.90;;;;;;4934564;29;20172;-79
2020/12/03 00:51:11;;;;;;;12.20;9.95;;;5.30;99.90;;;;;;4933795;28;20271;-79
2020/12/03 00:53:40;;;;;;;17.48;10.75;;;5.20;99.90;;;;;;4934351;29;20205;-79
2020/12/03 00:56:06;;;;;;;12.90;9.30;;;5.20;99.90;;;;;;4932573;28;20205;-79
2020/12/03 00:58:32;;;;;;;13.32;10.60;;;5.20;99.90;;;;;;4934377;29;20231;-79
2020/12/03 01:00:58;;;;;;;14.77;10.23;;;5.20;99.90;;;;;;4933862;28;20630;-79
2020/12/03 01:03:23;;;;;;;11.67;10.40;;;5.20;99.90;;;;;;4934305;29;20188;-79
2020/12/03 01:05:49;;;;;;;17.53;9.30;;;5.20;99.90;;;;;;4932091;28;20252;-80
2020/12/03 01:08:18;;;;;;;11.10;8.90;;;5.20;99.90;;;;;;4933632;29;20627;-79
2020/12/03 01:10:43;;;;;;;12.82;10.15;;;5.20;99.90;;;;;;4934352;28;20212;-79
2020/12/03 01:13:09;;;;;;;17.47;9.63;;;5.20;99.90;;;;;;4934276;29;20671;-79
2020/12/03 01:15:35;;;;;;;15.10;11.00;;;5.20;99.90;;;;;;4932966;28;20201;-79
2020/12/03 01:18:01;;;;;;;14.20;10.60;;;5.20;99.90;;;;;;4933198;29;20173;-79
2020/12/03 01:20:29;;;;;;;14.70;10.40;;;5.20;99.90;;;;;;4932401;28;20209;-79
2020/12/03 01:22:58;;;;;;;17.17;12.20;;;5.20;99.90;;;;;;4965206;28;20169;-79
2020/12/03 01:25:28;;;;;;;14.27;10.25;;;5.20;99.90;;;;;;4932846;28;20217;-79
2020/12/03 01:27:56;;;;;;;13.27;9.70;;;5.20;99.90;;;;;;4936380;29;20762;-79
2020/12/03 01:30:26;;;;;;;14.15;10.18;;;5.20;99.90;;;;;;4937522;28;20231;-79
2020/12/03 01:32:51;;;;;;;15.73;10.20;;;5.20;99.90;;;;;;4937767;29;20193;-79
2020/12/03 01:35:19;;;;;;;15.13;10.23;;;5.30;99.90;;;;;;4936235;28;20211;-79
2020/12/03 01:37:49;;;;;;;14.98;9.77;;;5.20;99.90;;;;;;4928631;29;20185;-79
2020/12/03 01:40:21;;;;;;;14.55;9.65;;;5.30;99.90;;;;;;4936725;28;20212;-79
2020/12/03 01:42:47;;;;;;;12.73;9.05;;;5.30;99.90;;;;;;4936136;29;20188;-79
2020/12/03 01:45:47;;;;;;;11.93;9.10;;;5.30;99.90;;;;;;4946804;28;20213;-79
2020/12/03 01:48:38;;;;;;;14.70;10.05;;;5.30;99.90;;;;;;4955789;29;20423;-79
2020/12/03 01:51:09;;;;;;;17.55;10.38;;;5.20;99.90;;;;;;4946915;28;20247;-79
2020/12/03 01:53:35;;;;;;;14.50;10.80;;;5.20;99.90;;;;;;4955770;29;20203;-77
2020/12/03 01:56:04;;;;;;;11.60;8.70;;;5.20;99.90;;;;;;4953395;28;20215;-78
2020/12/03 01:58:41;;;;;;;14.98;9.75;;;5.20;99.90;;;;;;4955778;29;20261;-77
2020/12/03 02:01:09;;;;;;;16.50;9.65;;;5.30;99.90;;;;;;4955751;28;20243;-79
2020/12/03 02:03:42;;;;;;;14.90;11.50;;;5.30;99.90;;;;;;4956168;29;20538;-79
2020/12/03 02:06:08;;;;;;;13.68;9.35;;;5.30;99.90;;;;;;4953775;29;20204;-79
2020/12/03 02:08:34;;;;;;;14.73;9.87;;;5.30;99.90;;;;;;4970831;28;20594;-78
2020/12/03 02:10:59;;;;;;;14.00;8.53;;;5.30;99.90;;;;;;4954730;28;20714;-78
2020/12/03 02:13:25;;;;;;;14.20;9.13;;;5.30;99.90;;;;;;4955517;29;20195;-78
2020/12/03 02:15:51;;;;;;;12.83;8.70;;;5.20;99.90;;;;;;4952643;28;20290;-78
2020/12/03 02:18:16;;;;;;;16.43;9.23;;;5.20;99.90;;;;;;4947657;29;20235;-78
2020/12/03 02:20:42;;;;;;;12.20;9.17;;;5.20;99.90;;;;;;4954898;28;20207;-78
2020/12/03 02:23:12;;;;;;;11.13;9.13;;;5.20;99.90;;;;;;4955437;28;20173;-77
2020/12/03 02:25:38;;;;;;;13.60;9.35;;;5.20;99.90;;;;;;4956399;28;20212;-77
2020/12/03 02:28:05;;;;;;;16.35;9.38;;;5.30;99.90;;;;;;4954223;29;20238;-78
2020/12/03 02:30:30;;;;;;;13.70;10.27;;;5.30;99.90;;;;;;4954696;28;20657;-78
2020/12/03 02:32:56;;;;;;;14.63;9.83;;;5.30;99.90;;;;;;4954917;28;20287;-78
2020/12/03 02:35:22;;;;;;;13.50;9.13;;;5.30;99.90;;;;;;4936271;29;20443;-77
2020/12/03 02:37:47;;;;;;;17.00;10.80;;;5.30;99.90;;;;;;4953745;28;20677;-78
2020/12/03 02:40:13;;;;;;;14.27;8.57;;;5.30;99.90;;;;;;4954226;28;20720;-78
2020/12/03 02:42:38;;;;;;;12.17;9.50;;;5.30;99.90;;;;;;4955369;29;20724;-77
2020/12/03 02:45:05;;;;;;;14.33;9.97;;;5.20;99.90;;;;;;4954103;28;20713;-78
2020/12/03 02:47:31;;;;;;;18.00;9.85;;;5.30;99.90;;;;;;4953536;29;20176;-78
2020/12/03 02:49:57;;;;;;;16.93;10.40;;;5.20;99.90;;;;;;4954606;28;20208;-77
2020/12/03 02:52:24;;;;;;;18.73;10.57;;;5.20;99.90;;;;;;4955305;29;20231;-77
2020/12/03 02:54:51;;;;;;;12.82;9.80;;;5.20;99.90;;;;;;4953801;28;20228;-77
2020/12/03 02:57:18;;;;;;;14.77;10.15;;;5.20;99.90;;;;;;4953535;29;20550;-78
2020/12/03 02:59:44;;;;;;;12.65;8.75;;;5.20;99.90;;;;;;4954304;28;20625;-78
2020/12/03 03:02:10;;;;;;;13.77;8.90;;;5.30;99.90;;;;;;4954959;29;20184;-77
2020/12/03 03:04:36;;;;;;;13.60;10.33;;;5.30;99.90;;;;;;4954498;28;20215;-78
2020/12/03 03:07:02;;;;;;;13.07;9.10;;;5.30;99.90;;;;;;4952198;29;20247;-77
2020/12/03 03:09:28;;;;;;;15.50;9.77;;;5.20;99.90;;;;;;4954164;28;20243;-78
2020/12/03 03:11:53;;;;;;;13.03;9.47;;;5.20;99.90;;;;;;4954549;28;20254;-77
2020/12/03 03:14:20;;;;;;;12.17;9.37;;;5.20;99.90;;;;;;4953836;28;20218;-77
2020/12/03 03:16:47;;;;;;;11.45;9.13;;;5.20;99.90;;;;;;4951497;29;20179;-77
2020/12/03 03:19:14;;;;;;;11.73;9.13;;;5.10;99.90;;;;;;4953509;28;20219;-77
2020/12/03 03:21:40;;;;;;;18.50;9.55;;;5.10;99.90;;;;;;4954443;28;20211;-78
2020/12/03 03:24:05;;;;;;;12.13;9.50;;;5.10;99.90;;;;;;4952262;28;20211;-78
2020/12/03 03:26:31;;;;;;;14.70;9.20;;;5.10;99.90;;;;;;4953079;29;20214;-78
2020/12/03 03:28:57;;;;;;;12.20;9.10;;;5.10;99.90;;;;;;4952189;28;20227;-78
2020/12/03 03:31:23;;;;;;;14.80;9.80;;;5.10;99.90;;;;;;4953065;29;20196;-77
2020/12/03 03:33:48;;;;;;;14.00;9.47;;;5.10;99.90;;;;;;4952673;29;20235;-77
2020/12/03 03:36:15;;;;;;;14.93;9.50;;;5.10;99.90;;;;;;4952988;29;20178;-78
2020/12/03 03:38:40;;;;;;;15.45;9.30;;;5.10;99.90;;;;;;4968713;28;20176;-77
2020/12/03 03:41:06;;;;;;;14.60;9.30;;;5.10;99.90;;;;;;4953316;28;20230;-77
2020/12/03 03:43:33;;;;;;;16.80;9.57;;;5.10;99.90;;;;;;4953762;29;20223;-78
2020/12/03 03:45:58;;;;;;;12.70;7.80;;;5.10;99.90;;;;;;4950813;28;20314;-78
2020/12/03 03:48:24;;;;;;;12.97;9.10;;;5.20;99.90;;;;;;4952835;29;20698;-78
2020/12/03 03:50:50;;;;;;;15.63;9.47;;;5.20;99.90;;;;;;4968282;28;20287;-77
2020/12/03 03:53:15;;;;;;;11.80;9.10;;;5.10;99.90;;;;;;4936452;29;20681;-77
2020/12/03 03:55:41;;;;;;;12.10;9.20;;;5.20;99.90;;;;;;4951322;28;20219;-78
2020/12/03 03:58:09;;;;;;;12.17;8.10;;;5.10;99.90;;;;;;4952357;29;20208;-77
2020/12/03 04:00:46;;;;;;;10.15;6.30;;;5.10;99.90;;;;;;4953223;28;20239;-77
2020/12/03 04:03:15;;;;;;;8.27;6.25;;;5.20;99.90;;;;;;4953181;28;20175;-77
2020/12/03 04:05:42;;;;;;;7.65;5.38;;;5.20;99.90;;;;;;4951997;28;20216;-77
2020/12/03 04:08:08;;;;;;;9.95;6.95;;;5.30;99.90;;;;;;4952313;29;20267;-77
2020/12/03 04:10:34;;;;;;;8.93;4.70;;;5.20;99.90;;;;;;4952945;28;20279;-77
2020/12/03 04:13:00;;;;;;;5.73;4.50;;;5.20;99.90;;;;;;4953098;29;20191;-77
2020/12/03 04:15:26;;;;;;;11.95;5.88;;;5.30;99.90;;;;;;4952041;28;20290;-77
2020/12/03 04:17:52;;;;;;;9.40;5.40;;;5.30;99.90;;;;;;4951247;29;20750;-77
2020/12/03 04:20:17;;;;;;;7.00;4.80;;;5.20;99.90;;;;;;4952872;28;20494;-77
2020/12/03 04:22:44;;;;;;;6.13;4.87;;;5.20;99.90;;;;;;4956352;28;20183;-77
2020/12/03 04:25:11;;;;;;;13.60;5.13;;;5.20;99.90;;;;;;4951699;28;20425;-77
2020/12/03 04:27:37;;;;;;;9.73;5.20;;;5.20;99.90;;;;;;4952738;29;20258;-77
2020/12/03 04:30:07;;;;;;;7.10;4.40;;;5.30;99.90;;;;;;4952523;28;20310;-77
2020/12/03 04:32:33;;;;;;;8.43;5.30;;;5.30;99.90;;;;;;4968291;28;20415;-78
2020/12/03 04:34:59;;;;;;;7.38;4.57;;;5.20;99.90;;;;;;4966517;28;20218;-78
2020/12/03 04:37:25;;;;;;;6.50;4.40;;;5.20;99.90;;;;;;4935471;29;20270;-77
2020/12/03 04:39:51;;;;;;;6.33;4.40;;;5.30;99.90;;;;;;4951232;28;20286;-78
2020/12/03 04:42:20;;;;;;;8.00;4.77;;;5.30;99.90;;;;;;4953295;29;20759;-77
2020/12/03 04:44:48;;;;;;;8.57;5.05;;;5.40;99.90;;;;;;4952553;28;20208;-77
2020/12/03 04:47:49;;;;;;;5.97;4.47;;;5.40;99.90;;;;;;4934149;29;20180;-78
2020/12/03 04:50:32;;;;;;;5.88;4.70;;;5.30;99.90;;;;;;4952301;28;20219;-77
2020/12/03 04:53:29;;;;;;;4.97;4.25;;;5.30;99.90;;;;;;4952974;29;20187;-77
2020/12/03 04:56:03;;;;;;;6.53;4.15;;;5.30;99.90;;;;;;4945405;28;20258;-77
2020/12/03 04:58:29;;;;;;;8.60;6.07;;;5.30;99.90;;;;;;4967981;28;20172;-77
2020/12/03 05:01:33;;;;;;;9.17;5.43;;;5.30;99.90;;;;;;4952324;28;20741;-77
2020/12/03 05:04:22;;;;;;;8.68;4.93;;;5.30;99.90;;;;;;4956149;28;20176;-77
2020/12/03 05:07:14;;;;;;;9.18;5.18;;;5.30;99.90;;;;;;4954990;29;20518;-77
2020/12/03 05:09:50;;;;;;;7.22;4.85;;;5.30;99.90;;;;;;4955524;28;20243;-77
2020/12/03 05:12:24;;;;;;;6.75;5.00;;;5.20;99.90;;;;;;4956646;29;20259;-77
2020/12/03 05:15:07;;;;;;;9.73;6.32;;;5.20;99.90;;;;;;4955051;28;20219;-77
2020/12/03 05:17:59;;;;;;;8.30;6.28;;;5.20;99.90;;;;;;4955715;29;20183;-77
2020/12/03 05:20:34;;;;;;;8.25;5.90;;;5.20;99.90;;;;;;4954179;28;20250;-77
2020/12/03 05:23:17;;;;;;;7.03;5.70;;;5.20;99.90;;;;;;4954834;29;20172;-77
2020/12/03 05:25:44;;;;;;;8.77;5.20;;;5.10;99.90;;;;;;4952772;28;20210;-77
2020/12/03 05:28:33;;;;;;;7.35;5.72;;;5.20;99.90;;;;;;4953753;29;20180;-78
2020/12/03 05:31:16;;;;;;;8.02;5.90;;;5.10;99.90;;;;;;4953956;28;20211;-77
2020/12/03 05:33:43;;;;;;;8.00;4.95;;;5.10;99.90;;;;;;4954583;29;20214;-78
2020/12/03 05:36:22;;;;;;;9.13;5.63;;;5.20;99.90;;;;;;4951576;29;20201;-78
2020/12/03 05:38:49;;;;;;;9.07;6.25;;;5.10;99.90;;;;;;4954608;29;20530;-78
2020/12/03 05:41:16;;;;;;;7.40;4.75;;;5.10;99.90;;;;;;4954164;28;20210;-78
2020/12/03 05:43:43;;;;;;;8.20;5.93;;;5.20;99.90;;;;;;4953219;28;20179;-79
2020/12/03 05:46:09;;;;;;;7.55;5.22;;;5.30;99.90;;;;;;4952576;29;20209;-78
2020/12/03 05:48:34;;;;;;;8.93;5.28;;;5.20;99.90;;;;;;4954391;29;20239;-78
2020/12/03 05:51:16;;;;;;;9.20;5.80;;;5.20;99.90;;;;;;4953426;28;20220;-78
2020/12/03 05:53:52;;;;;;;10.23;5.82;;;5.30;99.90;;;;;;4953486;29;20448;-78
2020/12/03 05:56:22;;;;;;;9.50;6.65;;;5.20;99.90;;;;;;4944945;29;20199;-78
2020/12/03 05:58:48;;;;;;;8.65;6.55;;;5.20;99.90;;;;;;4954135;29;20176;-78
2020/12/03 06:01:25;;;;;;;10.03;6.17;;;5.20;99.90;;;;;;4954150;28;20195;-78
2020/12/03 06:04:06;;;;;;;11.98;6.80;;;5.30;99.90;;;;;;4953521;28;20492;-78
2020/12/03 06:06:52;;;;;;;9.02;6.38;;;5.30;99.90;;;;;;4952262;29;20549;-78
2020/12/03 06:09:27;;;;;;;8.55;6.80;;;5.20;99.90;;;;;;4953443;28;20744;-79
2020/12/03 06:12:13;;;;;;;12.10;8.65;;;5.20;99.90;;;;;;4952458;29;20561;-79
2020/12/03 06:14:53;;;;;;;13.25;6.68;;;5.20;99.90;;;;;;4923288;28;20302;-78
2020/12/03 06:17:31;;;;;;;9.43;6.28;;;5.20;99.90;;;;;;4960646;28;20190;-78
2020/12/03 06:20:17;;;;;;;9.93;6.47;;;5.20;99.90;;;;;;4953031;28;20274;-78
2020/12/03 06:23:11;;;;;;;9.50;6.05;;;5.20;99.90;;;;;;4953492;29;20183;-79
2020/12/03 06:25:51;;;;;;;8.43;5.70;;;5.20;99.90;;;;;;4952544;28;20307;-78
2020/12/03 06:28:50;;;;;;;10.48;7.72;;;5.20;99.90;;;;;;4967811;28;20919;-78
2020/12/03 06:31:47;;;;;;;10.60;6.80;;;5.30;99.90;;;;;;4953172;28;20223;-78
2020/12/03 06:34:27;;;;;;;9.05;5.68;;;5.30;99.90;;;;;;4955108;28;20239;-78
2020/12/03 06:37:06;;;;;;;11.02;7.25;;;5.20;99.90;;;;;;4950062;29;20631;-78
2020/12/03 06:39:56;;;;;;;9.88;6.90;;;5.20;99.90;;;;;;4952723;28;20223;-78
2020/12/03 06:42:37;;;;;;;12.60;7.28;;;5.20;99.90;;;;;;4938069;29;20278;-78
2020/12/03 06:45:08;;;;;;;10.40;7.97;;;5.20;99.90;;;;;;4951575;28;20215;-78
2020/12/03 06:47:53;;;;;;;11.70;6.45;;;5.20;99.90;;;;;;4952397;29;20258;-78
2020/12/03 06:50:31;;;;;;;8.93;6.32;;;5.20;99.90;;;;;;4967090;28;20223;-78
2020/12/03 06:53:18;;;;;;;8.20;5.95;;;5.20;99.90;;;;;;4951840;29;20542;-78
2020/12/03 06:55:59;;;;;;;13.20;7.88;;;5.10;99.90;;;;;;4951646;28;20200;-79
2020/12/03 06:58:46;;;;;;;10.05;6.55;;;5.10;99.90;;;;;;4953107;29;20168;-78
2020/12/03 07:01:44;;;;;;;6.90;5.28;;;5.10;99.90;;;;;;4952109;28;20294;-78
2020/12/03 07:04:31;;;;;;;7.45;5.72;;;5.20;99.90;;;;;;4950835;28;20237;-78
2020/12/03 07:07:21;;;;;;;9.10;6.50;;;5.20;99.90;;;;;;4951495;29;20184;-79
2020/12/03 07:10:18;;;;;;;7.40;5.72;;;5.20;99.90;;;;;;4940235;28;20200;-78
2020/12/03 07:13:05;;;;;;;7.80;5.82;;;5.20;99.90;;;;;;4952420;29;20620;-78
2020/12/03 07:15:47;;;;;;;7.07;5.72;;;5.20;99.90;;;;;;4950905;28;20220;-79
2020/12/03 07:18:43;;;;;;;6.10;4.80;;;5.20;99.90;;;;;;4951814;29;21497;-78
2020/12/03 07:21:43;;;;;;;8.07;5.30;;;5.20;99.90;;;;;;4952075;29;20562;-78
2020/12/03 07:24:15;;;;;;;7.53;5.50;;;5.20;99.90;;;;;;4952494;28;20208;-78
2020/12/03 07:27:09;;;;;;;7.88;5.70;;;5.10;99.90;;;;;;4953083;29;20183;-77
2020/12/03 07:29:45;;;;;;;7.53;5.38;;;5.20;99.90;;;;;;4953594;28;20638;-77
2020/12/03 07:32:26;;;;;;;7.50;6.13;;;5.20;99.90;;;;;;4954315;29;20168;-77
2020/12/03 07:35:16;;;;;;;7.60;5.38;;;5.10;99.90;;;;;;4952471;28;20227;-77
2020/12/03 07:38:11;;;;;;;6.47;4.90;;;5.20;99.90;;;;;;4949810;29;20262;-77
2020/12/03 07:40:37;;;;;;;6.57;4.93;;;5.20;99.90;;;;;;4953146;28;20215;-77
2020/12/03 07:43:19;;;;;;;8.40;5.17;;;5.20;99.90;;;;;;4953568;29;20187;-77
2020/12/03 07:45:49;;;;;;;8.95;5.00;;;5.20;99.90;;;;;;4967386;28;20949;-79
2020/12/03 07:48:43;;;;;;;9.27;5.65;;;5.20;99.90;;;;;;4953592;29;20650;-78
2020/12/03 07:51:12;;;;;;;10.15;5.57;;;5.20;99.90;;;;;;4953568;28;20626;-78
2020/12/03 07:53:38;;;;;;;7.00;5.70;;;5.20;99.90;;;;;;4954065;29;20343;-78
2020/12/03 07:56:25;;;;;;;8.10;6.18;;;5.20;99.90;;;;;;4951683;28;22216;-78
2020/12/03 07:58:52;;;;;;;7.43;5.72;;;5.20;99.90;;;;;;4952921;28;20172;-77
2020/12/03 08:01:26;;;;;;;10.32;6.35;;;5.20;99.90;;;;;;4953407;28;20279;-78
2020/12/03 08:03:56;;;;;;;7.47;5.70;;;5.30;99.90;;;;;;4953515;28;20186;-77
2020/12/03 08:06:22;;;;;;;8.10;6.20;;;5.40;99.90;;;;;;4951640;29;20176;-77
2020/12/03 08:09:04;;;;;;;8.27;5.60;;;5.40;99.90;;;;;;4953305;28;20226;-77
2020/12/03 08:11:44;;;;;;;8.07;5.50;;;5.40;99.90;;;;;;4954068;28;20200;-77
2020/12/03 08:14:33;;;;;;;6.60;5.60;;;5.30;99.90;;;;;;4952910;28;20250;-78
2020/12/03 08:17:00;;;;;;;7.38;5.47;;;5.40;99.90;;;;;;4943446;29;20816;-77
2020/12/03 08:19:32;;;;;;;7.47;6.00;;;5.40;99.90;;;;;;4952797;28;20794;-77
2020/12/03 08:21:59;;;;;;;7.03;5.97;;;5.30;99.90;;;;;;4953232;28;20294;-77
2020/12/03 08:24:27;;;;;;;9.13;6.82;;;5.40;99.90;;;;;;4951970;28;20240;-77
2020/12/03 08:27:01;;;;;;;6.68;5.65;;;5.30;99.90;;;;;;4954216;28;20176;-78
2020/12/03 08:29:36;;;;;;;8.88;6.25;;;5.30;99.90;;;;;;4951469;28;20204;-77
2020/12/03 08:32:01;;;;;;;8.13;5.53;;;5.30;99.90;;;;;;4953160;28;20265;-77
2020/12/03 08:34:34;;;;;;;6.97;5.60;;;5.30;99.90;;;;;;4951259;28;20698;-77
2020/12/03 08:37:01;;;;;;;7.28;5.18;;;5.30;99.90;;;;;;4950766;28;20186;-78
2020/12/03 08:39:28;;;;;;;9.23;5.38;;;5.30;99.90;;;;;;4952800;28;20637;-77
2020/12/03 08:41:55;;;;;;;7.97;5.60;;;5.40;99.90;;;;;;4952726;28;20302;-77
2020/12/03 08:44:21;;;;;;;6.70;5.05;;;5.30;99.90;;;;;;4952599;28;20222;-77
2020/12/03 08:46:50;;;;;;;6.20;5.60;;;5.30;99.90;;;;;;4951436;29;20187;-78
2020/12/03 08:49:23;;;;;;;9.35;5.40;;;5.30;99.90;;;;;;4951370;28;20208;-77
2020/12/03 08:51:50;;;;;;;6.93;5.57;;;5.40;99.90;;;;;;4952805;28;20196;-77
2020/12/03 08:54:23;;;;;;;9.23;5.40;;;5.30;99.90;;;;;;4934583;29;20219;-77
2020/12/03 08:56:57;;;;;;;10.15;5.28;;;5.30;99.90;;;;;;4967061;28;20670;-77
2020/12/03 08:59:35;;;;;;;9.18;6.57;;;5.30;99.90;;;;;;4967829;28;20214;-78
2020/12/03 09:02:08;;;;;;;9.57;6.45;;;5.30;99.90;;;;;;4953169;28;20199;-78
2020/12/03 09:04:36;;;;;;;7.82;5.50;;;5.30;99.90;;;;;;4952683;28;20212;-78
2020/12/03 09:07:07;;;;;;;7.47;5.80;;;5.30;99.90;;;;;;4950560;28;20258;-78
2020/12/03 09:09:36;;;;;;;8.10;5.75;;;5.30;99.90;;;;;;4952989;28;20200;-79
2020/12/03 09:12:03;;;;;;;7.93;5.45;;;5.40;99.90;;;;;;4968012;28;20243;-78
2020/12/03 09:14:34;;;;;;;9.98;5.05;;;5.40;99.90;;;;;;4952224;28;20231;-78
2020/12/03 09:17:05;;;;;;;9.77;6.78;;;5.40;99.90;;;;;;4944284;29;20242;-79
2020/12/03 09:19:31;;;;;;;8.88;5.68;;;5.40;99.90;;;;;;4953220;28;20234;-79
2020/12/03 09:21:58;;;;;;;8.48;5.60;;;5.30;99.90;;;;;;4953670;28;20223;-79
2020/12/03 09:24:26;;;;;;;8.70;6.72;;;5.40;99.90;;;;;;4953458;28;20613;-79
2020/12/03 09:26:55;;;;;;;9.57;5.95;;;5.30;99.90;;;;;;4944483;29;20191;-79
2020/12/03 09:29:22;;;;;;;7.93;5.38;;;5.40;99.90;;;;;;4934267;28;20224;-79
2020/12/03 09:31:56;;;;;;;8.50;5.47;;;5.40;99.90;;;;;;4949424;28;20193;-79
2020/12/03 09:34:22;;;;;;;6.03;4.93;;;5.30;99.90;;;;;;4934522;28;20212;-79
2020/12/03 09:36:48;;;;;;;7.88;5.18;;;5.30;99.90;;;;;;4938205;29;20185;-79
2020/12/03 09:39:14;;;;;;;7.00;4.97;;;5.40;99.90;;;;;;4967602;28;20216;-79
2020/12/03 09:41:42;;;;;;;8.67;5.30;;;5.40;99.90;;;;;;4953695;28;20212;-79
2020/12/03 09:44:14;;;;;;;8.90;5.97;;;5.40;99.90;;;;;;4953434;28;20490;-79
2020/12/03 09:46:44;;;;;;;8.45;5.78;;;5.50;99.90;;;;;;4944209;29;20251;-79
2020/12/03 09:49:12;;;;;;;7.20;5.60;;;5.40;99.90;;;;;;4946129;28;20211;-79
2020/12/03 09:51:39;;;;;;;6.90;5.00;;;5.40;99.90;;;;;;4956909;28;20196;-78
2020/12/03 09:54:04;;;;;;;7.40;5.70;;;5.50;99.90;;;;;;4955708;28;20246;-79
2020/12/03 09:56:49;;;;;;;8.33;5.93;;;5.50;99.90;;;;;;4956361;29;20219;-79
2020/12/03 09:59:14;;;;;;;7.60;5.93;;;5.40;99.90;;;;;;4956032;28;20219;-79
2020/12/03 10:02:05;;;;;;;10.07;6.37;;;5.40;99.90;;;;;;4956399;28;20196;-79
2020/12/03 10:05:04;;;;;;;10.27;6.32;;;5.40;99.90;;;;;;4954676;28;20211;-79
2020/12/03 10:08:19;;;;;;;7.43;5.10;;;5.40;99.90;;;;;;4950546;29;20180;-79
2020/12/03 10:10:55;;;;;;;10.27;5.85;;;5.50;99.90;;;;;;4954346;28;20235;-79
2020/12/03 10:13:31;;;;;;;7.22;5.32;;;5.50;99.90;;;;;;4956027;29;20191;-79
2020/12/03 10:16:07;;;;;;;7.75;5.30;;;5.60;99.90;;;;;;4953518;28;20258;-78
2020/12/03 10:18:44;;;;;;;6.50;5.57;;;5.50;99.90;;;;;;4940461;29;20184;-79
2020/12/03 10:21:10;;;;;;;7.18;5.88;;;5.50;99.90;;;;;;4955174;28;20200;-78
2020/12/03 10:23:48;;;;;;;9.90;5.50;;;5.50;99.90;;;;;;4957876;28;20171;-78
2020/12/03 10:26:31;;;;;;;6.55;5.22;;;5.50;99.90;;;;;;4952661;29;20574;-78
2020/12/03 10:29:15;;;;;;;9.10;5.20;;;5.60;99.90;;;;;;4954704;28;20702;-78
2020/12/03 10:31:43;;;;;;;9.65;5.70;;;5.60;99.90;;;;;;4955160;28;20210;-79
2020/12/03 10:34:12;;;;;;;6.85;5.35;;;5.60;99.90;;;;;;4953596;28;20298;-78
2020/12/03 10:36:51;;;;;;;5.60;4.50;;;5.60;99.90;;;;;;4954424;29;20200;-78
2020/12/03 10:39:17;;;;;;;8.63;5.10;;;5.70;99.90;;;;;;4936077;28;20230;-78
2020/12/03 10:41:48;;;;;;;6.78;5.10;;;5.70;99.90;;;;;;4952631;28;20207;-78
2020/12/03 10:44:18;;;;;;;6.65;4.50;;;5.70;99.90;;;;;;4954661;28;20207;-78
2020/12/03 10:46:49;;;;;;;4.47;3.38;;;5.70;99.90;;;;;;4946552;29;20673;-78
2020/12/03 10:49:16;;;;;;;4.40;3.33;;;5.70;99.90;;;;;;4949866;28;20275;-78
2020/12/03 10:51:45;;;;;;;4.63;3.33;;;5.70;99.90;;;;;;4955323;28;20267;-78
2020/12/03 10:54:16;;;;;;;3.58;3.25;;;5.70;99.90;;;;;;4969421;28;20227;-78
2020/12/03 10:56:45;;;;;;;4.43;3.60;;;5.70;99.90;;;;;;4953341;29;20651;-78
2020/12/03 10:59:37;;;;;;;5.07;3.55;;;5.80;99.90;;;;;;4953878;28;20263;-78
2020/12/03 11:02:07;;;;;;;7.93;3.40;;;5.90;99.90;;;;;;4954517;28;20226;-78
2020/12/03 11:04:36;;;;;;;2.53;2.15;;;5.90;99.90;;;;;;4953064;28;20222;-78
2020/12/03 11:07:12;;;;;;;6.47;3.85;;;5.90;99.90;;;;;;4934341;29;20583;-77
2020/12/03 11:09:40;;;;;;;4.55;3.08;;;6.00;99.90;;;;;;4951146;28;20208;-78
2020/12/03 11:12:10;;;;;;;4.93;3.42;;;6.00;99.90;;;;;;4954123;28;20238;-77
2020/12/03 11:14:37;;;;;;;6.80;3.78;;;6.00;99.90;;;;;;4954040;28;20274;-77
2020/12/03 11:17:22;;;;;;;3.42;2.78;;;6.00;99.90;;;;;;4950898;29;20274;-78
2020/12/03 11:19:57;;;;;;;3.78;2.67;;;6.00;99.90;;;;;;4948395;28;20298;-78
2020/12/03 11:22:36;;;;;;;6.20;3.63;;;6.00;99.90;;;;;;4937061;29;20187;-78
2020/12/03 11:25:07;;;;;;;6.40;3.30;;;6.00;99.90;;;;;;4953518;28;20203;-79
2020/12/03 11:27:37;;;;;;;3.88;3.42;;;6.00;99.90;;;;;;4953220;29;20250;-78
2020/12/03 11:30:19;;;;;;;3.55;3.22;;;6.00;99.90;;;;;;4953561;28;20227;-78
2020/12/03 11:32:52;;;;;;;4.80;4.10;;;6.10;99.90;;;;;;4954224;29;20650;-78
2020/12/03 11:35:24;;;;;;;5.50;3.60;;;6.00;99.90;;;;;;4953046;28;20219;-78
2020/12/03 11:37:55;;;;;;;4.32;3.88;;;6.00;99.90;;;;;;4951408;29;20172;-78
2020/12/03 11:40:56;;;;;;;4.13;3.08;;;6.00;99.90;;;;;;4952598;28;20548;-78
2020/12/03 11:48:45;;;;;;;3.80;2.67;;;6.00;99.90;;;;;;4954152;29;20554;-78
2020/12/03 11:51:30;;;;;;;3.40;3.10;;;6.00;99.90;;;;;;4953395;28;20287;-77
2020/12/03 11:54:02;;;;;;;6.85;2.92;;;6.10;99.90;;;;;;4946163;28;20214;-78
2020/12/03 11:56:31;;;;;;;8.10;3.15;;;6.10;99.90;;;;;;4952162;29;20172;-77
2020/12/03 11:59:16;;;;;;;2.65;2.35;;;6.10;99.90;;;;;;4943397;28;20164;-77
2020/12/03 12:01:58;;;;;;;4.50;2.95;;;6.10;99.90;;;;;;4936936;29;20609;-77
2020/12/03 12:12:22;;;;;;;3.28;2.97;;;6.20;99.90;;;;;;4952557;28;20478;-77
2020/12/03 12:14:48;;;;;;;4.90;3.10;;;6.30;99.90;;;;;;4952970;28;20302;-77
2020/12/03 12:17:14;;;;;;;4.13;3.23;;;6.20;99.90;;;;;;4949908;28;20271;-78
2020/12/03 12:19:42;;;;;;;3.85;3.55;;;6.20;99.90;;;;;;4953249;28;20219;-77
2020/12/03 12:22:10;;;;;;;4.30;3.28;;;6.10;99.90;;;;;;4953276;29;20172;-77
2020/12/03 12:24:40;;;;;;;4.68;3.25;;;6.10;99.90;;;;;;4951729;28;20247;-77
2020/12/03 12:27:06;;;;;;;5.57;3.22;;;6.10;99.90;;;;;;4952844;29;20203;-77
2020/12/03 12:29:31;;;;;;;6.23;3.73;;;6.10;99.90;;;;;;4952356;28;20236;-77
2020/12/03 12:31:57;;;;;;;4.23;3.50;;;6.00;99.90;;;;;;4955336;28;20431;-77
2020/12/03 12:34:23;;;;;;;3.63;3.20;;;6.00;99.90;;;;;;4951352;28;20277;-77
2020/12/03 12:36:49;;;;;;;3.97;3.27;;;6.00;99.90;;;;;;4950879;29;20929;-77
2020/12/03 12:39:14;;;;;;;4.37;3.30;;;6.10;99.90;;;;;;4951525;28;20220;-78
2020/12/03 12:41:40;;;;;;;4.67;3.47;;;6.10;99.90;;;;;;4952502;28;20939;-77
2020/12/03 12:44:06;;;;;;;4.30;3.10;;;6.10;99.90;;;;;;4952919;28;20243;-78
2020/12/03 12:46:31;;;;;;;4.73;2.57;;;6.10;99.90;;;;;;4951114;28;20184;-77
2020/12/03 12:48:57;;;;;;;3.87;3.47;;;6.10;99.90;;;;;;4952818;28;20192;-77
2020/12/03 12:51:23;;;;;;;3.63;2.90;;;6.10;99.90;;;;;;4953032;28;20327;-77
2020/12/03 12:53:48;;;;;;;4.00;3.10;;;6.00;99.90;;;;;;4952059;28;20207;-77
2020/12/03 12:56:14;;;;;;;5.10;3.80;;;6.00;99.90;;;;;;4949911;29;20265;-77
2020/12/03 12:58:40;;;;;;;4.20;2.97;;;6.10;99.90;;;;;;4952396;29;20183;-78
2020/12/03 13:01:06;;;;;;;4.33;3.00;;;6.10;99.90;;;;;;4952619;28;20223;-77
2020/12/03 13:03:32;;;;;;;4.20;3.28;;;6.00;99.90;;;;;;4953246;29;20271;-78
2020/12/03 13:05:59;;;;;;;3.30;3.00;;;6.00;99.90;;;;;;4950853;28;20638;-77
2020/12/03 13:08:26;;;;;;;4.88;3.63;;;6.00;99.90;;;;;;4952860;29;20171;-77
2020/12/03 13:10:52;;;;;;;5.05;3.58;;;5.90;99.90;;;;;;4952451;28;20215;-78
2020/12/03 13:13:19;;;;;;;2.93;2.27;;;6.00;99.90;;;;;;4952729;29;20606;-77
2020/12/03 13:15:46;;;;;;;4.43;3.33;;;6.00;99.90;;;;;;4939722;28;20213;-78
2020/12/03 13:18:12;;;;;;;4.85;2.70;;;6.00;99.90;;;;;;4952431;29;20172;-78
2020/12/03 13:20:38;;;;;;;4.47;3.00;;;6.00;99.90;;;;;;4952123;28;20295;-77
2020/12/03 13:23:03;;;;;;;3.60;3.10;;;5.90;99.90;;;;;;4937064;29;20183;-77
2020/12/03 13:25:29;;;;;;;4.20;2.60;;;5.90;99.90;;;;;;4938391;28;20713;-77
2020/12/03 13:27:54;;;;;;;4.13;2.50;;;5.90;99.90;;;;;;4955549;28;20168;-77
2020/12/03 13:30:20;;;;;;;4.47;3.20;;;5.80;99.90;;;;;;4954676;28;20207;-77
2020/12/03 13:32:46;;;;;;;3.73;2.57;;;5.80;99.90;;;;;;4956330;29;20198;-77